createdAt,value
2023-04-10T00:02:23.779Z,69.93
2023-04-10T00:05:27.477Z,69.85
2023-04-10T00:08:30.112Z,69.82
2023-04-10T00:11:32.820Z,70.51
2023-04-10T00:14:40.602Z,70.50
2023-04-10T00:17:43.221Z,70.34
2023-04-10T00:20:46.254Z,70.30
2023-04-10T00:23:49.118Z,70.22
2023-04-10T00:26:51.802Z,70.22
2023-04-10T00:29:54.307Z,70.39
2023-04-10T00:32:57.048Z,70.43
2023-04-10T00:35:59.694Z,70.53
2023-04-10T00:39:02.305Z,70.71
2023-04-10T00:42:10.180Z,70.45
2023-04-10T00:45:12.786Z,70.32
2023-04-10T00:48:15.826Z,70.34
2023-04-10T00:51:20.827Z,70.43
2023-04-10T00:54:23.834Z,70.40
2023-04-10T00:57:27.204Z,70.31
2023-04-10T01:00:29.856Z,70.28
2023-04-10T01:03:40.699Z,70.19
2023-04-10T01:06:59.565Z,70.40
2023-04-10T01:10:14.052Z,70.46
2023-04-10T01:13:26.901Z,70.42
2023-04-10T01:16:40.962Z,70.50
2023-04-10T01:20:04.460Z,70.41
2023-04-10T01:27:47.031Z,70.41
2023-04-10T01:30:54.493Z,70.54
2023-04-10T01:34:06.307Z,70.47
2023-04-10T01:37:14.152Z,70.39
2023-04-10T01:40:19.592Z,70.36
2023-04-10T01:43:23.139Z,70.40
2023-04-10T01:46:27.725Z,70.69
2023-04-10T01:49:32.394Z,70.69
2023-04-10T01:52:43.950Z,70.75
2023-04-10T01:55:47.106Z,70.51
2023-04-10T01:58:51.027Z,70.57
2023-04-10T02:02:01.468Z,70.51
2023-04-10T02:05:04.647Z,70.70
2023-04-10T02:08:36.636Z,70.76
2023-04-10T02:12:05.992Z,70.88
2023-04-10T02:15:16.973Z,70.87
2023-04-10T02:18:22.342Z,70.82
2023-04-10T02:21:25.006Z,70.68
2023-04-10T02:24:36.982Z,70.84
2023-04-10T02:27:41.037Z,70.96
2023-04-10T02:30:43.615Z,70.99
2023-04-10T02:33:46.605Z,70.91
2023-04-10T02:36:49.147Z,70.94
2023-04-10T02:39:58.033Z,70.96
2023-04-10T02:43:00.803Z,71.11
2023-04-10T02:46:03.495Z,71.26
2023-04-10T02:49:07.703Z,71.31
2023-04-10T02:52:10.468Z,71.22
2023-04-10T02:55:13.223Z,71.26
2023-04-10T02:58:16.049Z,71.18
2023-04-10T03:01:18.887Z,71.19
2023-04-10T03:04:21.713Z,71.18
2023-04-10T03:07:54.087Z,71.01
2023-04-10T03:10:56.764Z,70.92
2023-04-10T03:13:59.521Z,70.89
2023-04-10T03:17:02.200Z,70.72
2023-04-10T03:20:05.500Z,70.74
2023-04-10T03:23:08.117Z,70.81
2023-04-10T03:26:10.794Z,70.77
2023-04-10T03:33:01.878Z,70.70
2023-04-10T03:36:05.252Z,70.76
2023-04-10T03:39:07.893Z,70.90
2023-04-10T03:42:11.423Z,70.85
2023-04-10T03:45:14.154Z,70.73
2023-04-10T03:48:18.018Z,70.76
2023-04-10T03:51:20.766Z,70.93
2023-04-10T03:54:23.409Z,71.02
2023-04-10T03:57:26.064Z,70.99
2023-04-10T04:00:28.684Z,71.01
2023-04-10T04:03:31.681Z,71.02
2023-04-10T04:06:43.039Z,70.99
2023-04-10T04:09:49.855Z,71.23
2023-04-10T04:13:16.684Z,71.41
2023-04-10T04:16:19.683Z,71.43
2023-04-10T04:19:22.477Z,71.48
2023-04-10T04:22:25.275Z,71.37
2023-04-10T04:25:27.876Z,71.39
2023-04-10T04:28:30.659Z,71.54
2023-04-10T04:31:35.350Z,71.70
2023-04-10T04:34:38.057Z,71.64
2023-04-10T04:37:40.967Z,71.66
2023-04-10T04:40:43.661Z,71.71
2023-04-10T04:43:47.694Z,71.72
2023-04-10T04:46:50.521Z,71.78
2023-04-10T04:49:53.313Z,72.01
2023-04-10T04:52:56.128Z,72.06
2023-04-10T04:55:58.958Z,72.13
2023-04-10T04:59:01.602Z,72.15
2023-04-10T05:02:18.940Z,72.20
2023-04-10T05:05:21.821Z,72.35
2023-04-10T05:08:24.590Z,72.37
2023-04-10T05:11:27.249Z,72.46
2023-04-10T05:14:29.919Z,72.44
2023-04-10T05:17:32.661Z,72.47
2023-04-10T05:20:36.077Z,72.60
2023-04-10T05:23:42.995Z,72.49
2023-04-10T05:26:47.885Z,72.45
2023-04-10T05:29:50.985Z,72.32
2023-04-10T05:32:53.671Z,72.37
2023-04-10T05:35:56.806Z,72.43
2023-04-10T05:38:59.553Z,72.54
2023-04-10T05:42:03.054Z,72.47
2023-04-10T05:45:06.497Z,72.48
2023-04-10T05:48:09.119Z,72.47
2023-04-10T05:51:11.818Z,72.53
2023-04-10T05:54:22.968Z,72.72
2023-04-10T05:57:29.647Z,72.63
2023-04-10T06:00:32.370Z,72.58
2023-04-10T06:03:35.554Z,72.52
2023-04-10T06:06:39.275Z,72.66
2023-04-10T06:09:44.046Z,72.68
2023-04-10T06:12:46.877Z,72.74
2023-04-10T06:15:49.653Z,72.71
2023-04-10T06:18:54.470Z,72.65
2023-04-10T06:22:19.521Z,72.74
2023-04-10T06:25:22.272Z,72.88
2023-04-10T06:28:24.975Z,72.77
2023-04-10T06:31:27.795Z,72.79
2023-04-10T06:34:37.204Z,72.65
2023-04-10T06:37:43.821Z,72.85
2023-04-10T06:40:46.844Z,72.90
2023-04-10T06:43:49.466Z,72.90
2023-04-10T06:46:52.164Z,72.93
2023-04-10T06:49:54.857Z,72.90
2023-04-10T06:53:00.130Z,73.04
2023-04-10T06:56:07.212Z,73.16
2023-04-10T06:59:12.903Z,73.08
2023-04-10T07:02:17.893Z,73.09
2023-04-10T07:05:21.168Z,73.15
2023-04-10T07:08:24.253Z,73.11
2023-04-10T07:11:27.065Z,73.08
2023-04-10T07:15:00.452Z,73.24
2023-04-10T07:18:03.439Z,73.10
2023-04-10T07:21:14.516Z,73.07
2023-04-10T07:24:18.135Z,73.13
2023-04-10T07:27:31.547Z,73.25
2023-04-10T07:30:35.116Z,73.22
2023-04-10T07:33:38.929Z,73.22
2023-04-10T07:36:41.627Z,73.22
2023-04-10T07:40:15.413Z,73.23
2023-04-10T07:43:18.126Z,73.36
2023-04-10T07:46:21.171Z,73.27
2023-04-10T07:49:23.903Z,73.24
2023-04-10T07:52:26.624Z,73.07
2023-04-10T07:55:29.228Z,73.11
2023-04-10T07:58:33.236Z,73.22
2023-04-10T08:01:36.035Z,73.17
2023-04-10T08:04:38.814Z,73.19
2023-04-10T08:07:41.557Z,73.07
2023-04-10T08:10:44.179Z,73.19
2023-04-10T08:13:47.053Z,73.12
2023-04-10T08:16:49.820Z,73.32
2023-04-10T08:19:53.163Z,73.07
2023-04-10T08:22:58.866Z,73.09
2023-04-10T08:26:06.515Z,73.19
2023-04-10T08:29:09.165Z,73.15
2023-04-10T08:32:11.891Z,73.14
2023-04-10T08:35:14.706Z,73.23
2023-04-10T08:38:17.509Z,73.09
2023-04-10T08:41:21.015Z,73.25
2023-04-10T08:44:23.621Z,73.34
2023-04-10T08:47:28.677Z,73.35
2023-04-10T08:50:33.952Z,73.20
2023-04-10T08:53:41.414Z,73.22
2023-04-10T08:56:58.715Z,73.31
2023-04-10T09:00:09.639Z,73.34
2023-04-10T09:03:23.168Z,73.31
2023-04-10T09:06:29.096Z,73.16
2023-04-10T09:09:34.706Z,73.11
2023-04-10T09:12:48.841Z,73.15
2023-04-10T09:16:01.428Z,73.16
2023-04-10T09:19:06.481Z,72.78
2023-04-10T09:22:47.761Z,72.66
2023-04-10T09:25:51.343Z,72.35
2023-04-10T09:28:58.493Z,72.34
2023-04-10T09:32:01.252Z,71.82
2023-04-10T09:35:06.845Z,71.76
2023-04-10T09:38:17.996Z,71.77
2023-04-10T09:41:20.778Z,71.46
2023-04-10T09:44:34.540Z,71.49
2023-04-10T09:47:37.977Z,71.09
2023-04-10T09:50:41.202Z,71.20
2023-04-10T09:53:51.050Z,70.84
2023-04-10T09:56:54.032Z,70.91
2023-04-10T10:00:08.478Z,70.89
2023-04-10T10:03:13.972Z,70.72
2023-04-10T10:06:17.161Z,70.24
2023-04-10T10:09:20.363Z,70.20
2023-04-10T10:12:28.933Z,70.14
2023-04-10T10:15:31.644Z,70.19
2023-04-10T10:18:53.874Z,70.01
2023-04-10T10:22:00.409Z,69.91
2023-04-10T10:25:03.964Z,69.58
2023-04-10T10:28:06.984Z,69.59
2023-04-10T10:31:10.408Z,69.30
2023-04-10T10:34:15.227Z,69.26
2023-04-10T10:37:19.238Z,68.98
2023-04-10T10:40:32.141Z,68.81
2023-04-10T10:44:01.930Z,68.62
2023-04-10T10:47:16.104Z,68.72
2023-04-10T10:50:18.875Z,68.64
2023-04-10T10:53:43.081Z,68.42
2023-04-10T10:56:46.065Z,68.26
2023-04-10T10:59:51.230Z,67.97
2023-04-10T11:03:09.635Z,67.84
2023-04-10T11:06:19.798Z,68.00
2023-04-10T11:09:51.334Z,67.99
2023-04-10T11:13:19.592Z,67.82
2023-04-10T11:16:41.113Z,67.51
2023-04-10T11:20:04.260Z,67.05
2023-04-10T11:23:12.515Z,66.48
2023-04-10T11:26:35.880Z,66.30
2023-04-10T11:29:38.676Z,66.69
2023-04-10T11:32:51.004Z,66.48
2023-04-10T11:35:53.941Z,65.81
2023-04-10T11:39:01.027Z,65.36
2023-04-10T11:42:04.929Z,65.63
2023-04-10T11:45:27.817Z,65.50
2023-04-10T11:48:31.589Z,65.09
2023-04-10T11:51:34.450Z,64.94
2023-04-10T11:54:37.929Z,64.83
2023-04-10T11:57:40.941Z,64.61
2023-04-10T12:00:43.726Z,64.42
2023-04-10T12:03:46.710Z,64.32
2023-04-10T12:06:54.031Z,64.22
2023-04-10T12:10:00.565Z,64.42
2023-04-10T12:13:03.455Z,64.12
2023-04-10T12:16:10.981Z,64.08
2023-04-10T12:19:16.003Z,63.52
2023-04-10T12:22:18.896Z,63.05
2023-04-10T12:25:21.789Z,62.16
2023-04-10T12:28:24.637Z,62.19
2023-04-10T12:31:36.425Z,62.11
2023-04-10T12:38:37.865Z,61.42
2023-04-10T12:41:40.665Z,61.01
2023-04-10T12:48:35.968Z,61.48
2023-04-10T12:51:48.898Z,60.66
2023-04-10T12:54:51.668Z,60.37
2023-04-10T12:58:18.169Z,60.47
2023-04-10T13:01:21.569Z,60.35
2023-04-10T13:04:24.655Z,60.27
2023-04-10T13:07:27.541Z,60.03
2023-04-10T13:10:30.375Z,59.30
2023-04-10T13:13:33.340Z,59.27
2023-04-10T13:16:36.243Z,58.66
2023-04-10T13:19:43.757Z,59.01
2023-04-10T13:22:46.860Z,58.64
2023-04-10T13:25:49.886Z,58.03
2023-04-10T13:28:54.433Z,58.04
2023-04-10T13:31:57.575Z,57.88
2023-04-10T13:35:00.903Z,57.32
2023-04-10T13:38:04.130Z,57.26
2023-04-10T13:41:07.346Z,56.65
2023-04-10T13:44:10.562Z,56.72
2023-04-10T13:47:18.224Z,55.52
2023-04-10T13:50:21.282Z,55.96
2023-04-10T13:53:24.549Z,56.01
2023-04-10T13:56:27.597Z,55.65
2023-04-10T13:59:31.134Z,55.78
2023-04-10T14:02:39.996Z,55.89
2023-04-10T14:05:43.185Z,55.38
2023-04-10T14:08:47.257Z,55.30
2023-04-10T14:11:52.427Z,54.91
2023-04-10T14:14:57.014Z,54.91
2023-04-10T14:18:04.274Z,54.86
2023-04-10T14:21:08.491Z,54.51
2023-04-10T14:24:12.183Z,52.79
2023-04-10T14:27:16.357Z,53.43
2023-04-10T14:30:20.709Z,53.50
2023-04-10T14:33:23.672Z,53.76
2023-04-10T14:36:27.882Z,53.28
2023-04-10T14:39:31.517Z,53.21
2023-04-10T14:42:34.306Z,53.09
2023-04-10T14:45:37.110Z,52.11
2023-04-10T14:48:40.076Z,52.41
2023-04-10T14:51:44.060Z,52.36
2023-04-10T14:54:46.848Z,52.28
2023-04-10T14:57:50.040Z,51.38
2023-04-10T15:00:53.035Z,51.56
2023-04-10T15:03:56.334Z,51.41
2023-04-10T15:06:59.266Z,51.66
2023-04-10T15:10:02.088Z,51.35
2023-04-10T15:13:06.105Z,50.90
2023-04-10T15:16:09.289Z,50.63
2023-04-10T15:19:12.073Z,51.35
2023-04-10T15:22:18.028Z,50.69
2023-04-10T15:25:21.107Z,50.80
2023-04-10T15:28:23.916Z,50.46
2023-04-10T15:31:26.729Z,50.39
2023-04-10T15:34:29.435Z,50.23
2023-04-10T15:37:34.316Z,49.84
2023-04-10T15:40:36.990Z,49.56
2023-04-10T15:43:39.750Z,49.73
2023-04-10T15:46:43.386Z,49.92
2023-04-10T15:49:46.193Z,49.88
2023-04-10T15:52:48.980Z,49.53
2023-04-10T15:55:51.852Z,49.38
2023-04-10T15:58:54.618Z,49.59
2023-04-10T16:01:57.833Z,49.77
2023-04-10T16:05:01.059Z,49.32
2023-04-10T16:08:04.081Z,49.35
2023-04-10T16:11:06.923Z,49.36
2023-04-10T16:14:10.060Z,49.16
2023-04-10T16:17:12.752Z,49.07
2023-04-10T16:20:15.514Z,48.92
2023-04-10T16:23:18.254Z,49.22
2023-04-10T16:26:21.449Z,49.08
2023-04-10T16:29:24.559Z,49.20
2023-04-10T16:32:28.446Z,49.34
2023-04-10T16:35:32.589Z,49.21
2023-04-10T16:38:35.834Z,48.77
2023-04-10T16:41:38.905Z,48.95
2023-04-10T16:44:41.639Z,48.94
2023-04-10T16:47:46.193Z,48.78
2023-04-10T16:50:49.078Z,49.28
2023-04-10T16:53:52.174Z,48.81
2023-04-10T16:56:55.815Z,48.99
2023-04-10T16:59:59.350Z,49.08
2023-04-10T17:03:02.676Z,49.17
2023-04-10T17:06:05.931Z,49.41
2023-04-10T17:09:08.664Z,49.34
2023-04-10T17:12:11.611Z,49.49
2023-04-10T17:15:14.842Z,49.70
2023-04-10T17:18:20.053Z,49.75
2023-04-10T17:21:22.747Z,49.95
2023-04-10T17:24:31.552Z,49.91
2023-04-10T17:27:35.135Z,49.93
2023-04-10T17:30:38.269Z,50.09
2023-04-10T17:33:44.660Z,50.15
2023-04-10T17:36:49.673Z,50.24
2023-04-10T17:39:54.305Z,50.27
2023-04-10T17:42:56.986Z,50.35
2023-04-10T17:46:02.612Z,50.36
2023-04-10T17:49:05.905Z,50.54
2023-04-10T17:52:08.710Z,50.77
2023-04-10T17:55:11.826Z,50.83
2023-04-10T17:58:15.116Z,50.98
2023-04-10T18:01:31.013Z,51.09
2023-04-10T18:04:34.160Z,51.32
2023-04-10T18:07:38.105Z,51.28
2023-04-10T18:10:41.208Z,51.32
2023-04-10T18:13:44.480Z,51.26
2023-04-10T18:16:48.964Z,51.38
2023-04-10T18:19:55.812Z,51.50
2023-04-10T18:22:58.825Z,51.63
2023-04-10T18:26:01.748Z,51.73
2023-04-10T18:29:04.944Z,51.75
2023-04-10T18:32:08.146Z,51.85
2023-04-10T18:35:11.097Z,52.08
2023-04-10T18:38:14.231Z,52.14
2023-04-10T18:41:17.359Z,52.19
2023-04-10T18:44:20.374Z,52.21
2023-04-10T18:47:23.161Z,52.35
2023-04-10T18:50:26.081Z,52.44
2023-04-10T18:53:29.248Z,52.46
2023-04-10T18:56:35.394Z,52.51
2023-04-10T18:59:38.486Z,52.55
2023-04-10T19:02:41.573Z,52.56
2023-04-10T19:05:44.633Z,52.62
2023-04-10T19:08:47.738Z,52.58
2023-04-10T19:11:50.763Z,52.66
2023-04-10T19:14:53.833Z,52.70
2023-04-10T19:17:56.659Z,52.83
2023-04-10T19:20:59.563Z,52.88
2023-04-10T19:24:02.733Z,52.98
2023-04-10T19:27:06.524Z,52.96
2023-04-10T19:30:09.630Z,52.91
2023-04-10T19:33:12.378Z,52.87
2023-04-10T19:36:18.083Z,53.00
2023-04-10T19:39:21.454Z,53.10
2023-04-10T19:42:24.550Z,53.16
2023-04-10T19:45:29.256Z,53.06
2023-04-10T19:48:32.963Z,53.14
2023-04-10T19:51:35.776Z,53.02
2023-04-10T19:54:38.485Z,53.14
2023-04-10T19:57:41.707Z,53.32
2023-04-10T20:00:44.486Z,53.36
2023-04-10T20:03:47.443Z,53.43
2023-04-10T20:06:50.649Z,53.58
2023-04-10T20:09:53.375Z,53.68
2023-04-10T20:12:56.203Z,53.81
2023-04-10T20:16:02.305Z,53.86
2023-04-10T20:19:05.052Z,54.04
2023-04-10T20:22:08.158Z,54.13
2023-04-10T20:25:10.884Z,54.25
2023-04-10T20:28:15.376Z,54.39
2023-04-10T20:31:18.069Z,54.41
2023-04-10T20:34:20.748Z,54.56
2023-04-10T20:37:23.502Z,54.72
2023-04-10T20:40:26.767Z,54.72
2023-04-10T20:43:29.421Z,54.82
2023-04-10T20:46:32.176Z,55.13
2023-04-10T20:49:37.545Z,55.02
2023-04-10T20:52:40.483Z,55.51
2023-04-10T20:55:43.123Z,55.84
2023-04-10T20:58:46.098Z,55.87
2023-04-10T21:01:49.001Z,55.70
2023-04-10T21:04:54.658Z,55.74
2023-04-10T21:07:57.470Z,56.18
2023-04-10T21:11:00.155Z,56.34
2023-04-10T21:14:03.340Z,56.44
2023-04-10T21:17:06.014Z,56.42
2023-04-10T21:20:09.045Z,56.56
2023-04-10T21:23:11.742Z,56.80
2023-04-10T21:26:14.515Z,56.94
2023-04-10T21:29:17.272Z,57.22
2023-04-10T21:32:21.971Z,57.40
2023-04-10T21:35:24.855Z,57.84
2023-04-10T21:38:28.240Z,58.16
2023-04-10T21:41:31.020Z,58.32
2023-04-10T21:44:33.664Z,58.26
2023-04-10T21:47:36.318Z,58.28
2023-04-10T21:50:45.283Z,58.40
2023-04-10T21:53:47.922Z,58.47
2023-04-10T21:56:50.559Z,58.70
2023-04-10T21:59:53.167Z,58.57
2023-04-10T22:02:56.118Z,58.90
2023-04-10T22:05:58.994Z,58.92
2023-04-10T22:09:01.660Z,58.84
2023-04-10T22:12:04.584Z,58.93
2023-04-10T22:15:07.990Z,58.89
2023-04-10T22:18:10.814Z,59.09
2023-04-10T22:21:13.533Z,59.20
2023-04-10T22:24:16.266Z,59.25
2023-04-10T22:27:26.402Z,59.36
2023-04-10T22:30:31.421Z,59.27
2023-04-10T22:33:34.162Z,59.30
2023-04-10T22:36:37.070Z,59.56
2023-04-10T22:39:39.749Z,59.52
2023-04-10T22:42:43.763Z,59.80
2023-04-10T22:45:47.932Z,59.92
2023-04-10T22:48:50.720Z,59.96
2023-04-10T22:51:53.463Z,60.25
2023-04-10T22:54:57.594Z,60.36
2023-04-10T22:58:01.168Z,60.45
2023-04-10T23:01:03.882Z,60.81
2023-04-10T23:04:06.534Z,61.00
2023-04-10T23:07:09.180Z,61.39
2023-04-10T23:10:11.907Z,61.31
2023-04-10T23:13:14.598Z,61.30
2023-04-10T23:16:17.361Z,61.22
2023-04-10T23:19:20.070Z,61.25
2023-04-10T23:22:22.722Z,61.26
2023-04-10T23:25:25.436Z,61.52
2023-04-10T23:28:28.633Z,61.63
2023-04-10T23:31:31.512Z,61.82
2023-04-10T23:34:34.282Z,62.02
2023-04-10T23:37:37.376Z,62.06
2023-04-10T23:40:40.031Z,62.03
2023-04-10T23:43:42.719Z,62.10
2023-04-10T23:46:45.546Z,62.25
2023-04-10T23:49:48.330Z,62.51
2023-04-10T23:52:52.031Z,62.55
2023-04-10T23:55:54.819Z,62.47
2023-04-10T23:58:57.954Z,62.36
